Thunder radar more information blitzortung!


Radar de pluja more information rain snow radar


Visita la nostra xarxa de llocs de meteo:

Template documentation
and downloads

And another site



No particular awareness of the weather is required.    There are no Weather-warnings

Pagina Historial Weather Underground text

Diari Resum Juliol 6, 2017 Unitats:  Mètric    Imperial   Tant
« Previous Dia
SegĂźent Dia »
Diari Setmana Mensual Anual Personalitzada
  Maxima: Minima: Media:
Temperatura: 34.3 °C 18.6 °C 27 °C
Punt de rosada: 18.0 °C 11.9 °C 15.5 °C
Humitat: 77 % 27 % 52 %
Wind Speed: 20.4 km/h 0.0 km/h 6.9 km/h
RĂ fegues de vent: 20.4 km/h - -
Vent:- - ESE
Pression baro: 1017.8 hPa 1014.8 hPa -
Precipitacions: 0.0 mm    
Historical Graphs
 
 
Dades de taula per Juliol 6, 2017
Temps Temperatura Punt de rosada Pression baro Vent Wind Speed RĂ fegues de vent Humitat Rainfall Rate (Hourly)
00:01 21.4 °C 16.6 °C 1015.8 hPa SW 3.2 km/h 3.2 km/h 74 % 0.0 mm
00:05 19.1 °C 14.6 °C 1014.8 hPa NE 3.2 km/h 6.4 km/h 75 % 0.0 mm
00:06 21.2 °C 16.4 °C 1015.8 hPa Calm     74 % 0.0 mm
00:11 21.2 °C 16.6 °C 1015.8 hPa NE 3.2 km/h   75 % 0.0 mm
00:15 19.2 °C 14.4 °C 1014.8 hPa Calm   3.2 km/h 74 % 0.0 mm
00:25 18.7 °C 14.4 °C 1014.8 hPa SSW 1.6 km/h 6.4 km/h 76 % 0.0 mm
00:35 18.6 °C 14.3 °C 1015.8 hPa SW 4.8 km/h 4.8 km/h 76 % 0.0 mm
00:45 18.6 °C 14.5 °C 1015.8 hPa Calm   4.8 km/h 77 % 0.0 mm
00:55 18.8 °C 14.7 °C 1015.8 hPa NW 3.2 km/h 4.8 km/h 77 % 0.0 mm
01:05 18.9 °C 14.6 °C 1014.8 hPa Calm   3.2 km/h 76 % 0.0 mm
01:15 18.9 °C 14.8 °C 1014.8 hPa North 1.6 km/h 4.8 km/h 77 % 0.0 mm
01:25 18.7 °C 14.6 °C 1014.8 hPa WNW 1.6 km/h 3.2 km/h 77 % 0.0 mm
01:35 18.8 °C 14.7 °C 1014.8 hPa SSW 3.2 km/h 3.2 km/h 77 % 0.0 mm
01:45 19.0 °C 13.8 °C 1014.8 hPa NE 4.8 km/h 6.4 km/h 72 % 0.0 mm
01:55 18.9 °C 14.4 °C 1014.8 hPa NNE 4.8 km/h 6.4 km/h 75 % 0.0 mm
02:05 18.9 °C 14.4 °C 1014.8 hPa West 1.6 km/h 3.2 km/h 75 % 0.0 mm
02:15 18.8 °C 14.3 °C 1015.8 hPa SW 3.2 km/h 6.4 km/h 75 % 0.0 mm
02:25 19.1 °C 14.6 °C 1015.8 hPa SW 3.2 km/h 4.8 km/h 75 % 0.0 mm
02:35 19.3 °C 14.8 °C 1015.8 hPa Calm   3.2 km/h 75 % 0.0 mm
02:45 19.5 °C 14.7 °C 1015.8 hPa NNE 1.6 km/h 3.2 km/h 74 % 0.0 mm
02:55 19.6 °C 14.6 °C 1015.8 hPa WSW 1.6 km/h 1.6 km/h 73 % 0.0 mm
03:05 19.8 °C 15.1 °C 1015.8 hPa SW 1.6 km/h 3.2 km/h 74 % 0.0 mm
03:15 20.1 °C 14.7 °C 1015.8 hPa WSW 1.6 km/h 1.6 km/h 71 % 0.0 mm
03:25 20.5 °C 15.1 °C 1015.8 hPa West 3.2 km/h 3.2 km/h 71 % 0.0 mm
03:35 20.9 °C 15.2 °C 1016.8 hPa SW 1.6 km/h 3.2 km/h 70 % 0.0 mm
03:45 21.6 °C 15.7 °C 1016.8 hPa SW 1.6 km/h 3.2 km/h 69 % 0.0 mm
03:55 22.3 °C 15.7 °C 1016.8 hPa SW 3.2 km/h 3.2 km/h 66 % 0.0 mm
04:05 23.0 °C 15.8 °C 1016.8 hPa Calm   4.8 km/h 64 % 0.0 mm
04:15 23.5 °C 16.1 °C 1017.8 hPa Calm   3.2 km/h 63 % 0.0 mm
04:25 24.4 °C 16.4 °C 1017.8 hPa SW 1.6 km/h 4.8 km/h 61 % 0.0 mm
04:35 24.6 °C 16.3 °C 1017.8 hPa SW 1.6 km/h 6.4 km/h 60 % 0.0 mm
04:45 25.4 °C 16.3 °C 1017.8 hPa SW 1.6 km/h 3.2 km/h 57 % 0.0 mm
04:55 26.4 °C 16.3 °C 1017.8 hPa South 3.2 km/h 6.4 km/h 54 % 0.0 mm
05:05 26.3 °C 15.9 °C 1017.8 hPa SE 3.2 km/h 6.4 km/h 53 % 0.0 mm
05:15 26.6 °C 16.2 °C 1017.8 hPa SSE 1.6 km/h 3.2 km/h 53 % 0.0 mm
05:25 27.5 °C 16.2 °C 1017.8 hPa Calm   3.2 km/h 50 % 0.0 mm
05:35 27.5 °C 15.2 °C 1017.8 hPa SSE 3.2 km/h 6.4 km/h 47 % 0.0 mm
05:40 27.6 °C 15.3 °C 1017.8 hPa SSE 1.6 km/h 4.8 km/h 47 % 0.0 mm
10:40 27.9 °C 15.9 °C 1017.8 hPa SE 3.7 km/h   48 % 0.0 mm
10:45 28.5 °C 16.1 °C 1016.8 hPa East 5.6 km/h 5.6 km/h 47 % 0.0 mm
10:50 28.3 °C 15.9 °C 1016.8 hPa East 5.6 km/h 5.6 km/h 47 % 0.0 mm
10:56 28.4 °C 16.3 °C 1017.8 hPa WNW 3.7 km/h 3.7 km/h 48 % 0.0 mm
11:02 28.6 °C 15.8 °C 1017.8 hPa NE 3.7 km/h 3.9 km/h 46 % 0.0 mm
11:05 29.0 °C 15.9 °C 1017.8 hPa NNE 5.6 km/h 5.6 km/h 45 % 0.0 mm
11:10 29.1 °C 15.9 °C 1017.8 hPa NNW 3.7 km/h 4.2 km/h 45 % 0.0 mm
11:13 29.2 °C 16.1 °C 1017.8 hPa North 5.6 km/h 5.6 km/h 45 % 0.0 mm
11:15 29.3 °C 16.1 °C 1017.8 hPa NE 5.6 km/h 5.6 km/h 45 % 0.0 mm
11:19 28.7 °C 15.9 °C 1017.8 hPa WSW 5.6 km/h 5.6 km/h 46 % 0.0 mm
11:20 28.7 °C 15.6 °C 1017.8 hPa SW 4.2 km/h 4.2 km/h 45 % 0.0 mm
11:23 29.3 °C 15.8 °C 1017.8 hPa NNE 1.9 km/h 1.9 km/h 44 % 0.0 mm
11:25 29.5 °C 15.9 °C 1017.8 hPa ESE 5.8 km/h 5.8 km/h 44 % 0.0 mm
11:28 29.4 °C 15.2 °C 1017.8 hPa NNE 5.6 km/h 5.6 km/h 42 % 0.0 mm
11:30 29.2 °C 14.9 °C 1017.8 hPa NNW 5.6 km/h 5.6 km/h 42 % 0.0 mm
11:31 29.2 °C 14.9 °C 1017.8 hPa West 5.6 km/h 5.6 km/h 42 % 0.0 mm
11:36 29.7 °C 15.4 °C 1017.8 hPa NNE 7.4 km/h 7.4 km/h 42 % 0.0 mm
11:41 29.6 °C 15.3 °C 1016.8 hPa East 9.3 km/h 9.3 km/h 42 % 0.0 mm
11:46 30.0 °C 14.9 °C 1016.8 hPa SE 7.4 km/h 7.4 km/h 40 % 0.0 mm
11:51 29.9 °C 14.8 °C 1016.8 hPa NNE 9.3 km/h 9.3 km/h 40 % 0.0 mm
11:56 30.0 °C 14.9 °C 1016.8 hPa NNE 14.8 km/h 14.8 km/h 40 % 0.0 mm
12:01 30.3 °C 14.8 °C 1016.8 hPa NE 9.3 km/h 9.3 km/h 39 % 0.0 mm
12:06 30.4 °C 14.5 °C 1016.8 hPa ESE 9.3 km/h 9.3 km/h 38 % 0.0 mm
12:11 30.6 °C 14.7 °C 1015.8 hPa ENE 9.3 km/h 9.3 km/h 38 % 0.0 mm
12:16 30.7 °C 14.3 °C 1015.8 hPa NE 9.3 km/h 9.3 km/h 37 % 0.0 mm
12:21 31.2 °C 14.8 °C 1015.8 hPa West 3.7 km/h 3.7 km/h 37 % 0.0 mm
12:26 31.6 °C 13.8 °C 1015.8 hPa East 9.7 km/h 9.7 km/h 34 % 0.0 mm
12:31 31.3 °C 14.0 °C 1015.8 hPa NE 7.4 km/h 7.4 km/h 35 % 0.0 mm
12:36 31.8 °C 14.4 °C 1015.8 hPa ESE 5.8 km/h 7.2 km/h 35 % 0.0 mm
12:41 32.1 °C 13.8 °C 1015.8 hPa SE 3.7 km/h 3.7 km/h 33 % 0.0 mm
12:46 32.1 °C 13.3 °C 1015.8 hPa ENE 10.3 km/h 10.3 km/h 32 % 0.0 mm
12:51 32.8 °C 14.9 °C 1015.8 hPa SW 7.4 km/h 7.4 km/h 34 % 0.0 mm
12:56 33.7 °C 14.2 °C 1015.8 hPa ESE 6.4 km/h 6.4 km/h 31 % 0.0 mm
13:01 32.5 °C 13.2 °C 1015.8 hPa East 14.8 km/h 14.8 km/h 31 % 0.0 mm
13:06 33.3 °C 13.4 °C 1015.8 hPa East 11.9 km/h 11.9 km/h 30 % 0.0 mm
13:11 32.8 °C 12.9 °C 1015.8 hPa ESE 5.6 km/h 5.6 km/h 30 % 0.0 mm
13:16 33.3 °C 12.8 °C 1015.8 hPa SSE 9.3 km/h 9.3 km/h 29 % 0.0 mm
13:21 33.1 °C 13.2 °C 1015.8 hPa ESE 9.5 km/h 9.5 km/h 30 % 0.0 mm
13:26 33.5 °C 13.6 °C 1015.8 hPa North 7.4 km/h 7.4 km/h 30 % 0.0 mm
13:31 33.6 °C 12.6 °C 1015.8 hPa NE 9.3 km/h 9.3 km/h 28 % 0.0 mm
13:36 33.7 °C 13.2 °C 1015.8 hPa ESE 9.3 km/h 9.3 km/h 29 % 0.0 mm
13:41 33.8 °C 12.7 °C 1015.8 hPa East 14.0 km/h 14.0 km/h 28 % 0.0 mm
13:46 33.7 °C 12.7 °C 1015.8 hPa NE 9.3 km/h 9.3 km/h 28 % 0.0 mm
13:51 33.5 °C 11.9 °C 1015.8 hPa ENE 13.0 km/h 13.0 km/h 27 % 0.0 mm
13:56 34.2 °C 13.1 °C 1014.8 hPa SSE 9.3 km/h 9.3 km/h 28 % 0.0 mm
14:01 34.3 °C 13.2 °C 1014.8 hPa SE 9.3 km/h 9.3 km/h 28 % 0.0 mm
14:06 33.8 °C 13.8 °C 1014.8 hPa ESE 16.4 km/h 16.4 km/h 30 % 0.0 mm
14:11 33.3 °C 14.4 °C 1015.8 hPa ESE 16.7 km/h 16.7 km/h 32 % 0.0 mm
14:16 33.6 °C 14.6 °C 1015.8 hPa SE 13.0 km/h 13.0 km/h 32 % 0.0 mm
14:21 33.8 °C 14.8 °C 1015.8 hPa ENE 18.5 km/h 18.5 km/h 32 % 0.0 mm
14:26 32.9 °C 14.5 °C 1015.8 hPa NE 16.7 km/h 16.7 km/h 33 % 0.0 mm
14:31 32.7 °C 14.3 °C 1015.8 hPa ESE 13.0 km/h 13.0 km/h 33 % 0.0 mm
14:36 32.3 °C 14.0 °C 1015.8 hPa South 11.1 km/h 11.1 km/h 33 % 0.0 mm
14:41 32.0 °C 13.7 °C 1015.8 hPa ESE 20.4 km/h 20.4 km/h 33 % 0.0 mm
14:46 31.9 °C 14.1 °C 1015.8 hPa SE 13.0 km/h 13.0 km/h 34 % 0.0 mm
14:51 31.6 °C 13.8 °C 1015.8 hPa SE 20.4 km/h 20.4 km/h 34 % 0.0 mm
14:56 31.5 °C 13.7 °C 1015.8 hPa East 14.8 km/h 14.8 km/h 34 % 0.0 mm
15:01 31.5 °C 14.2 °C 1015.8 hPa East 20.4 km/h 20.4 km/h 35 % 0.0 mm
15:06 31.9 °C 14.6 °C 1015.8 hPa East 12.2 km/h 12.2 km/h 35 % 0.0 mm
15:11 31.7 °C 14.3 °C 1015.8 hPa ESE 16.7 km/h 16.7 km/h 35 % 0.0 mm
15:16 31.8 °C 14.4 °C 1015.8 hPa ESE 13.0 km/h 13.0 km/h 35 % 0.0 mm
15:21 31.7 °C 14.3 °C 1015.8 hPa ESE 11.9 km/h 11.9 km/h 35 % 0.0 mm
15:26 31.5 °C 14.6 °C 1015.8 hPa East 14.8 km/h 14.8 km/h 36 % 0.0 mm
15:31 31.5 °C 14.6 °C 1015.8 hPa NE 14.8 km/h 14.8 km/h 36 % 0.0 mm
15:36 31.0 °C 14.6 °C 1015.8 hPa ESE 15.1 km/h 15.1 km/h 37 % 0.0 mm
15:41 30.6 °C 15.1 °C 1015.8 hPa ENE 15.8 km/h 15.8 km/h 39 % 0.0 mm
15:46 30.4 °C 15.3 °C 1015.8 hPa ESE 16.1 km/h 16.1 km/h 40 % 0.0 mm
15:51 30.1 °C 15.4 °C 1015.8 hPa East 16.7 km/h 16.7 km/h 41 % 0.0 mm
15:56 30.1 °C 15.4 °C 1015.8 hPa ESE 18.5 km/h 18.5 km/h 41 % 0.0 mm
16:01 29.9 °C 15.6 °C 1015.8 hPa East 13.0 km/h 13.0 km/h 42 % 0.0 mm
16:06 29.5 °C 15.6 °C 1015.8 hPa SE 18.5 km/h 18.5 km/h 43 % 0.0 mm
16:11 29.6 °C 15.7 °C 1015.8 hPa ESE 16.7 km/h 16.7 km/h 43 % 0.0 mm
16:16 29.3 °C 15.4 °C 1015.8 hPa East 14.8 km/h 14.8 km/h 43 % 0.0 mm
16:21 29.4 °C 15.9 °C 1015.8 hPa ESE 16.7 km/h 16.7 km/h 44 % 0.0 mm
16:26 29.6 °C 16.1 °C 1015.8 hPa East 13.0 km/h 13.0 km/h 44 % 0.0 mm
16:31 29.5 °C 15.6 °C 1015.8 hPa ENE 13.0 km/h 13.0 km/h 43 % 0.0 mm
16:36 29.5 °C 15.6 °C 1015.8 hPa SE 14.8 km/h 14.8 km/h 43 % 0.0 mm
16:41 29.5 °C 15.6 °C 1015.8 hPa SE 11.1 km/h 11.1 km/h 43 % 0.0 mm
16:46 29.6 °C 15.3 °C 1015.8 hPa ESE 13.0 km/h 13.0 km/h 42 % 0.0 mm
16:51 29.5 °C 15.2 °C 1015.8 hPa ESE 11.1 km/h 11.1 km/h 42 % 0.0 mm
16:56 29.5 °C 14.5 °C 1015.8 hPa ESE 14.8 km/h 14.8 km/h 40 % 0.0 mm
17:01 29.4 °C 14.4 °C 1015.8 hPa ESE 11.1 km/h 11.1 km/h 40 % 0.0 mm
17:06 29.5 °C 14.5 °C 1015.8 hPa East 8.7 km/h 8.7 km/h 40 % 0.0 mm
17:11 29.3 °C 14.3 °C 1014.8 hPa ENE 9.7 km/h 9.7 km/h 40 % 0.0 mm
17:16 29.3 °C 14.3 °C 1014.8 hPa East 9.5 km/h 9.5 km/h 40 % 0.0 mm
17:21 29.3 °C 13.9 °C 1014.8 hPa ESE 11.1 km/h 11.1 km/h 39 % 0.0 mm
17:26 29.2 °C 14.2 °C 1015.8 hPa ENE 11.1 km/h 11.1 km/h 40 % 0.0 mm
17:31 29.2 °C 14.2 °C 1015.8 hPa ENE 7.4 km/h 7.4 km/h 40 % 0.0 mm
17:36 29.1 °C 13.7 °C 1015.8 hPa ENE 14.8 km/h 14.8 km/h 39 % 0.0 mm
17:41 28.9 °C 14.3 °C 1014.8 hPa NE 9.3 km/h 9.3 km/h 41 % 0.0 mm
17:46 28.9 °C 14.7 °C 1014.8 hPa ESE 7.4 km/h 7.4 km/h 42 % 0.0 mm
17:51 28.9 °C 15.1 °C 1014.8 hPa ESE 11.1 km/h 11.1 km/h 43 % 0.0 mm
17:56 28.8 °C 15.3 °C 1015.8 hPa ESE 7.4 km/h 7.4 km/h 44 % 0.0 mm
18:01 28.9 °C 15.4 °C 1015.8 hPa NNE 9.3 km/h 9.3 km/h 44 % 0.0 mm
18:06 28.6 °C 15.5 °C 1015.8 hPa East 13.0 km/h 13.0 km/h 45 % 0.0 mm
18:11 28.6 °C 15.5 °C 1015.8 hPa SSE 11.9 km/h 11.9 km/h 45 % 0.0 mm
18:16 28.9 °C 15.4 °C 1015.8 hPa South 9.3 km/h 9.3 km/h 44 % 0.0 mm
18:21 29.1 °C 15.2 °C 1015.8 hPa South 5.6 km/h 5.6 km/h 43 % 0.0 mm
18:26 29.1 °C 15.2 °C 1015.8 hPa SW 7.4 km/h 7.4 km/h 43 % 0.0 mm
18:31 28.9 °C 15.4 °C 1015.8 hPa WSW 13.0 km/h 13.0 km/h 44 % 0.0 mm
18:36 28.7 °C 15.6 °C 1015.8 hPa South 13.0 km/h 13.0 km/h 45 % 0.0 mm
18:41 28.4 °C 15.3 °C 1015.8 hPa SW 14.8 km/h 14.8 km/h 45 % 0.0 mm
18:46 28.3 °C 15.6 °C 1015.8 hPa SW 11.1 km/h 11.1 km/h 46 % 0.0 mm
18:51 28.3 °C 15.2 °C 1015.8 hPa WSW 7.4 km/h 7.4 km/h 45 % 0.0 mm
18:56 28.2 °C 15.2 °C 1015.8 hPa SW 10.3 km/h 10.3 km/h 45 % 0.0 mm
19:01 28.1 °C 14.7 °C 1015.8 hPa SSW 14.8 km/h 14.8 km/h 44 % 0.0 mm
19:06 28.2 °C 14.8 °C 1015.8 hPa SW 11.1 km/h 11.1 km/h 44 % 0.0 mm
19:11 28.3 °C 14.5 °C 1016.8 hPa WSW 7.4 km/h 7.4 km/h 43 % 0.0 mm
19:15 24.2 °C 17.7 °C 1016.8 hPa NNE 4.8 km/h 6.4 km/h 67 % 0.0 mm
19:16 28.6 °C 14.4 °C 1016.8 hPa SW 5.6 km/h 5.6 km/h 42 % 0.0 mm
19:21 28.7 °C 14.2 °C 1016.8 hPa South 9.3 km/h 9.3 km/h 41 % 0.0 mm
19:25 24.0 °C 17.5 °C 1016.8 hPa NNE 1.6 km/h 4.8 km/h 67 % 0.0 mm
19:26 28.8 °C 14.2 °C 1015.8 hPa SW 9.3 km/h 9.3 km/h 41 % 0.0 mm
19:31 28.6 °C 13.7 °C 1015.8 hPa SSW 9.3 km/h 9.3 km/h 40 % 0.0 mm
19:35 23.9 °C 17.9 °C 1016.8 hPa NE 1.6 km/h 3.2 km/h 69 % 0.0 mm
19:36 28.5 °C 13.6 °C 1015.8 hPa SSW 7.4 km/h 7.4 km/h 40 % 0.0 mm
19:41 28.5 °C 13.9 °C 1014.8 hPa SW 4.7 km/h 4.7 km/h 41 % 0.0 mm
19:45 23.8 °C 18.0 °C 1015.8 hPa East 1.6 km/h 3.2 km/h 70 % 0.0 mm
19:46 28.3 °C 13.8 °C 1014.8 hPa SW 5.6 km/h 5.6 km/h 41 % 0.0 mm
19:51 28.3 °C 13.8 °C 1014.8 hPa SSW 3.7 km/h 3.7 km/h 41 % 0.0 mm
19:55 23.6 °C 17.8 °C 1015.8 hPa Calm   1.6 km/h 70 % 0.0 mm
19:56 28.2 °C 13.7 °C 1015.8 hPa South 2.3 km/h 2.3 km/h 41 % 0.0 mm
20:01 28.1 °C 13.6 °C 1015.8 hPa Calm     41 % 0.0 mm
20:05 23.4 °C 17.6 °C 1016.8 hPa Calm   1.6 km/h 70 % 0.0 mm
20:06 28.1 °C 13.6 °C 1015.8 hPa ENE 3.7 km/h 3.7 km/h 41 % 0.0 mm
20:11 28.0 °C 13.5 °C 1015.8 hPa ENE 3.7 km/h 3.7 km/h 41 % 0.0 mm
20:15 23.3 °C 17.5 °C 1016.8 hPa NW 3.2 km/h 4.8 km/h 70 % 0.0 mm
20:16 27.9 °C 13.4 °C 1015.8 hPa ENE 7.6 km/h 7.6 km/h 41 % 0.0 mm
20:21 27.8 °C 14.1 °C 1015.8 hPa ESE 8.7 km/h 8.7 km/h 43 % 0.0 mm
20:25 23.2 °C 17.7 °C 1016.8 hPa NNE 4.8 km/h 4.8 km/h 71 % 0.0 mm
20:26 27.6 °C 14.9 °C 1014.8 hPa ENE 7.9 km/h 7.9 km/h 46 % 0.0 mm
20:31 27.3 °C 15.7 °C 1014.8 hPa ESE 9.3 km/h 9.3 km/h 49 % 0.0 mm
20:35 23.0 °C 17.4 °C 1015.8 hPa NNE 3.2 km/h 6.4 km/h 71 % 0.0 mm
20:36 27.1 °C 16.1 °C 1014.8 hPa ENE 7.4 km/h 7.4 km/h 51 % 0.0 mm
20:41 27.1 °C 16.1 °C 1015.8 hPa North 7.6 km/h 7.6 km/h 51 % 0.0 mm
20:42 27.1 °C 16.1 °C 1015.8 hPa ENE 7.4 km/h 7.4 km/h 51 % 0.0 mm
20:45 22.9 °C 17.3 °C 1015.8 hPa NNE 1.6 km/h 3.2 km/h 71 % 0.0 mm
20:47 27.1 °C 16.4 °C 1015.8 hPa SE 6.9 km/h 6.9 km/h 52 % 0.0 mm
20:52 26.9 °C 17.1 °C 1015.8 hPa East 9.3 km/h 9.3 km/h 55 % 0.0 mm
20:55 22.7 °C 17.4 °C 1015.8 hPa Calm   3.2 km/h 72 % 0.0 mm
20:57 26.8 °C 16.7 °C 1015.8 hPa ESE 3.7 km/h 3.7 km/h 54 % 0.0 mm
21:02 26.6 °C 17.1 °C 1015.8 hPa East 5.6 km/h 5.6 km/h 56 % 0.0 mm
21:07 26.5 °C 16.7 °C 1015.8 hPa East 5.0 km/h 5.0 km/h 55 % 0.0 mm
21:12 26.5 °C 17.3 °C 1015.8 hPa ESE 5.6 km/h 5.6 km/h 57 % 0.0 mm
21:15 22.5 °C 17.2 °C 1015.8 hPa Calm   1.6 km/h 72 % 0.0 mm
21:17 26.4 °C 17.2 °C 1015.8 hPa ESE 5.6 km/h 5.6 km/h 57 % 0.0 mm
21:22 26.3 °C 16.8 °C 1015.8 hPa ENE 4.2 km/h 4.2 km/h 56 % 0.0 mm
21:25 22.3 °C 17.0 °C 1015.8 hPa Calm     72 % 0.0 mm
21:27 26.2 °C 17.0 °C 1015.8 hPa NNE 3.7 km/h 3.7 km/h 57 % 0.0 mm
21:32 26.2 °C 17.0 °C 1015.8 hPa ENE 1.9 km/h 1.9 km/h 57 % 0.0 mm
21:37 26.1 °C 16.9 °C 1015.8 hPa ENE 3.7 km/h   57 % 0.0 mm
21:38 26.1 °C 16.9 °C 1015.8 hPa East 3.7 km/h 3.7 km/h 57 % 0.0 mm
21:43 26.1 °C 16.9 °C 1014.8 hPa NNE 5.6 km/h 5.6 km/h 57 % 0.0 mm
21:45 22.2 °C 17.1 °C 1014.8 hPa Calm   3.2 km/h 73 % 0.0 mm
21:48 26.0 °C 16.8 °C 1014.8 hPa ESE 5.6 km/h 5.6 km/h 57 % 0.0 mm
21:53 26.0 °C 17.1 °C 1014.8 hPa ENE 3.9 km/h 3.9 km/h 58 % 0.0 mm
21:55 22.2 °C 17.1 °C 1014.8 hPa NNE 1.6 km/h 3.2 km/h 73 % 0.0 mm
21:58 25.9 °C 17.0 °C 1015.8 hPa SSE 3.7 km/h 3.7 km/h 58 % 0.0 mm
22:03 25.8 °C 17.2 °C 1015.8 hPa ESE 5.6 km/h 5.6 km/h 59 % 0.0 mm
22:05 22.1 °C 17.1 °C 1015.8 hPa NNW 3.2 km/h 3.2 km/h 73 % 0.0 mm
22:08 25.7 °C 17.6 °C 1015.8 hPa ESE 8.7 km/h 8.7 km/h 61 % 0.0 mm
22:13 25.6 °C 17.3 °C 1015.8 hPa East 5.3 km/h 5.3 km/h 60 % 0.0 mm
22:15 21.9 °C 17.1 °C 1015.8 hPa West 1.6 km/h 3.2 km/h 74 % 0.0 mm
22:18 25.4 °C 17.1 °C 1015.8 hPa ENE 5.8 km/h 5.8 km/h 60 % 0.0 mm
22:23 25.4 °C 17.6 °C 1015.8 hPa ESE 5.6 km/h 5.6 km/h 62 % 0.0 mm
22:25 21.9 °C 17.3 °C 1015.8 hPa Calm   1.6 km/h 75 % 0.0 mm
22:28 25.3 °C 17.5 °C 1015.8 hPa ENE 5.6 km/h 5.6 km/h 62 % 0.0 mm
22:33 25.2 °C 17.4 °C 1015.8 hPa East 3.7 km/h 3.7 km/h 62 % 0.0 mm
22:35 22.0 °C 17.2 °C 1015.8 hPa NW 3.2 km/h 3.2 km/h 74 % 0.0 mm
22:38 25.1 °C 17.3 °C 1015.8 hPa ENE 3.7 km/h 3.7 km/h 62 % 0.0 mm
22:43 25.0 °C 17.4 °C 1015.8 hPa ESE 5.6 km/h 5.6 km/h 63 % 0.0 mm
22:45 21.8 °C 17.2 °C 1015.8 hPa Calm   3.2 km/h 75 % 0.0 mm
22:48 25.1 °C 17.6 °C 1015.8 hPa NNE 3.7 km/h 3.9 km/h 63 % 0.0 mm
22:53 25.1 °C 17.3 °C 1015.8 hPa NNE 5.6 km/h 5.6 km/h 62 % 0.0 mm
22:55 21.6 °C 17.0 °C 1015.8 hPa SE 1.6 km/h 3.2 km/h 75 % 0.0 mm
22:58 25.1 °C 17.6 °C 1015.8 hPa NNE 5.6 km/h 5.6 km/h 63 % 0.0 mm
22:59 25.1 °C 17.3 °C 1015.8 hPa NNE 5.6 km/h 5.6 km/h 62 % 0.0 mm
23:04 25.1 °C 17.6 °C 1015.8 hPa NE 3.7 km/h 3.7 km/h 63 % 0.0 mm
23:05 21.6 °C 17.0 °C 1015.8 hPa Calm   1.6 km/h 75 % 0.0 mm
23:09 25.0 °C 17.4 °C 1015.8 hPa NNW 1.9 km/h 1.9 km/h 63 % 0.0 mm
23:14 25.0 °C 17.4 °C 1015.8 hPa Calm     63 % 0.0 mm
23:15 21.6 °C 17.0 °C 1015.8 hPa Calm   1.6 km/h 75 % 0.0 mm
23:19 24.9 °C 17.6 °C 1015.8 hPa NE 5.6 km/h 5.6 km/h 64 % 0.0 mm
23:24 24.8 °C 17.5 °C 1015.8 hPa NE 7.4 km/h 7.4 km/h 64 % 0.0 mm
23:25 21.7 °C 16.7 °C 1015.8 hPa NNW 3.2 km/h 4.8 km/h 73 % 0.0 mm
23:29 24.7 °C 17.4 °C 1015.8 hPa ENE 5.6 km/h 5.6 km/h 64 % 0.0 mm
23:34 24.6 °C 17.3 °C 1015.8 hPa NE 3.7 km/h 3.7 km/h 64 % 0.0 mm
23:35 21.7 °C 16.4 °C 1015.8 hPa NNE 1.6 km/h 3.2 km/h 72 % 0.0 mm
23:39 24.5 °C 17.5 °C 1015.8 hPa NNE 9.3 km/h 9.3 km/h 65 % 0.0 mm
23:44 24.4 °C 17.6 °C 1015.8 hPa NNE 9.3 km/h 9.3 km/h 66 % 0.0 mm
23:45 21.8 °C 15.8 °C 1015.8 hPa ENE 3.2 km/h 3.2 km/h 69 % 0.0 mm
23:49 24.4 °C 17.6 °C 1015.8 hPa NNE 5.6 km/h 5.6 km/h 66 % 0.0 mm
23:54 24.3 °C 17.6 °C 1015.8 hPa NNE 2.3 km/h   66 % 0.0 mm
23:55 21.5 °C 15.3 °C 1015.8 hPa NE 1.6 km/h 4.8 km/h 68 % 0.0 mm
23:59 24.3 °C 17.6 °C 1016.8 hPa ENE 3.7 km/h 3.7 km/h 66 % 0.0 mm
Meteo Sesrovires
Elogis d' Weather Underground - 3.75 mb

Guio original per  Jim McMurry - jmcmurry@mwt.net Adaptat per a la plantilla per  Wim van der Kuil - Leuven-Template.eu

Trobareu la nostra informacio del temps tambe a:

Weather Underground

AWEKAS